Latest Weather Observations for Merimbula

IDN60801

Issued at 3:32 pm EDT Saturday 10 December 2016 (issued every 30 minutes, with the page automatically refreshed every 10 minutes)

About weather observations | Map of weather stations | Latest weather observations for NSW | Other Formats
Station Details ID: 069147 Name: MERIMBULA AIRPORT AWS Lat: -36.91 Lon: 149.90 Height: 1.5 m
Data from the previous 72 hours. | See also: Recent months at Merimbula
Date/Time
EDT
Temp
°C
App
Temp
°C
Dew
Point
°C
Rel
Hum
%
Delta-T
°C
Wind Press
QNH
hPa
Press
MSL
hPa
Rain since
9am
mm
Dir  Spd
km/h
Gust
km/h
Spd
kts
Gust
kts
10/03:30pm 19.3 16.1 9.8 54 5.0 ESE 17 26 9 14 1021.5 1021.5 0.0
10/03:00pm 19.8 16.5 9.4 51 5.5 ESE 17 28 9 15 1021.6 1021.6 0.0
10/02:30pm 19.9 16.8 10.3 54 5.2 ESE 17 24 9 13 1021.7 1021.7 0.0
10/02:00pm 19.4 15.8 8.4 49 5.7 E 17 24 9 13 1021.7 1021.7 0.0
10/01:30pm 19.8 16.6 8.5 48 5.9 ESE 15 24 8 13 1021.8 1021.8 0.0
10/01:00pm 19.4 16.2 8.4 49 5.7 ESE 15 22 8 12 1021.9 1021.9 0.0
10/12:30pm 19.3 15.6 8.0 48 5.8 E 17 24 9 13 1022.0 1022.0 0.0
10/12:00pm 19.1 15.8 8.1 49 5.6 E 15 22 8 12 1022.2 1022.2 0.0
10/11:30am 18.4 14.2 5.9 44 6.1 ESE 17 22 9 12 1022.3 1022.3 0.0
10/11:00am 18.4 15.2 6.9 47 5.7 E 13 22 7 12 1022.6 1022.6 0.0
10/10:30am 17.9 13.8 6.1 46 5.8 E 17 24 9 13 1022.5 1022.5 0.0
10/10:00am 17.6 14.4 5.2 44 5.9 SE 11 17 6 9 1022.6 1022.6 0.0
10/09:30am 17.7 14.6 5.6 45 5.9 ESE 11 19 6 10 1022.7 1022.7 0.0
10/09:00am 16.3 14.8 5.0 47 5.3 NNE 2 9 1 5 1022.7 1022.7 0.0
10/08:30am 16.0 14.9 5.0 48 5.2 CALM 0 0 0 0 1022.7 1022.7 0.0
10/08:00am 15.8 14.2 4.5 47 5.3 ESE 2 9 1 5 1022.6 1022.6 0.0
10/07:30am 14.8 13.0 5.6 54 4.4 WNW 4 9 2 5 1022.5 1022.5 0.0
10/07:00am 12.8 10.6 6.2 64 3.1 NNW 7 9 4 5 1022.1 1022.1 0.0
10/06:30am 10.4 8.2 6.4 76 1.9 WSW 7 11 4 6 1021.6 1021.6 0.0
10/06:00am 10.1 7.6 6.4 78 1.7 NW 9 13 5 7 1021.3 1021.3 0.0
10/05:30am 9.5 7.1 4.1 69 2.4 WNW 6 9 3 5 1021.0 1021.0 0.0
10/05:00am 9.4 6.1 4.6 72 2.1 W 11 15 6 8 1020.5 1020.5 0.0
10/04:30am 10.2 7.2 6.2 76 1.9 NW 11 13 6 7 1020.1 1020.1 0.0
10/04:00am 9.7 7.3 5.1 73 2.1 NW 7 11 4 6 1019.9 1019.9 0.0
10/03:30am 11.1 8.1 4.1 62 3.1 WNW 9 15 5 8 1019.8 1019.8 0.0
10/03:00am 12.3 9.4 4.5 59 3.5 W 9 17 5 9 1019.8 1019.8 0.0
10/02:30am 12.3 9.8 4.5 59 3.5 NW 7 13 4 7 1019.7 1019.7 0.0
10/02:00am 13.3 10.6 3.9 53 4.2 WSW 7 19 4 10 1019.7 1019.7 0.0
10/01:30am 13.9 9.8 4.2 52 4.4 WSW 15 28 8 15 1019.5 1019.5 0.0
10/01:00am 13.9 9.4 4.2 52 4.4 WSW 17 26 9 14 1019.5 1019.5 0.0
10/12:30am 13.9 10.5 3.9 51 4.5 WSW 11 15 6 8 1019.7 1019.7 0.0
10/12:00am 14.1 10.4 4.4 52 4.5 W 13 22 7 12 1019.6 1019.6 0.0
 
Date/Time
EDT
Temp
°C
App
Temp
°C
Dew
Point
°C
Rel
Hum
%
Delta-T
°C
Wind Press
QNH
hPa
Press
MSL
hPa
Rain since
9am
mm
Dir  Spd
km/h
Gust
km/h
Spd
kts
Gust
kts
09/11:30pm 14.2 11.4 5.0 54 4.3 W 9 19 5 10 1019.3 1019.3 0.0
09/11:00pm 14.9 10.9 4.9 51 4.7 WSW 15 26 8 14 1019.2 1019.2 0.0
09/10:30pm 14.7 10.8 5.5 54 4.4 WSW 15 26 8 14 1018.7 1018.7 0.0
09/10:00pm 14.3 11.0 6.2 58 3.9 SW 13 20 7 11 1018.2 1018.2 0.0
09/09:30pm 14.8 10.5 5.3 53 4.5 SSW 17 22 9 12 1017.8 1017.8 0.0
09/09:00pm 15.3 11.7 5.2 51 4.8 SSW 13 26 7 14 1017.3 1017.3 0.0
09/08:30pm 15.7 11.7 5.0 49 5.1 S 15 22 8 12 1016.7 1016.7 0.0
09/08:00pm 16.3 11.9 5.0 47 5.4 SSW 17 28 9 15 1016.0 1016.0 0.0
09/07:30pm 17.3 13.0 5.3 45 5.8 SSW 17 24 9 13 1015.3 1015.3 0.0
09/07:00pm 18.3 12.5 4.5 40 6.6 SW 24 41 13 22 1014.6 1014.6 0.0
09/06:30pm 18.8 14.0 5.6 42 6.5 SSW 20 37 11 20 1013.9 1013.9 0.0
09/06:03pm 19.1 12.6 4.5 38 7.0 SSW 28 46 15 25 1013.3 1013.3 0.0
09/06:00pm 19.0 12.0 4.0 37 7.1 SSW 30 46 16 25 1013.4 1013.4 0.0
09/05:35pm 20.0 13.3 3.7 34 7.7 SSW 28 46 15 25 1012.9 1012.9 0.0
09/05:30pm 20.3 14.6 4.8 36 7.5 SSW 24 43 13 23 1012.8 1012.8 0.0
09/05:02pm 20.7 14.1 4.3 34 7.9 SSW 28 48 15 26 1012.4 1012.4 0.0
09/05:00pm 20.7 14.4 3.9 33 8.1 SSW 26 48 14 26 1012.4 1012.4 0.0
09/04:30pm 20.9 13.6 2.2 29 8.7 SW 30 56 16 30 1012.0 1012.0 0.0
09/04:24pm 21.4 14.5 2.6 29 8.8 SW 28 46 15 25 1011.9 1011.9 0.0
09/04:00pm 21.0 15.4 3.7 32 8.3 SW 22 35 12 19 1011.7 1011.7 0.0
09/03:30pm 20.8 14.8 3.1 31 8.4 WSW 24 43 13 23 1011.5 1011.5 0.0
09/03:00pm 20.8 14.2 2.1 29 8.7 SW 26 54 14 29 1011.5 1011.5 0.0
09/02:57pm 20.4 14.5 1.8 29 8.5 SW 22 54 12 29 1011.4 1011.4 0.0
09/02:30pm 19.4 13.4 3.2 34 7.6 SW 24 37 13 20 1011.5 1011.5 0.0
09/02:00pm 19.4 13.8 3.2 34 7.6 SW 22 32 12 17 1011.1 1011.1 0.0
09/01:44pm 20.6 13.9 3.8 33 8.0 WSW 28 50 15 27 1011.0 1011.0 0.0
09/01:30pm 20.1 14.3 4.6 36 7.5 SW 24 46 13 25 1010.8 1010.8 0.0
09/01:12pm 20.7 14.1 4.3 34 7.9 WSW 28 46 15 25 1010.5 1010.5 0.0
09/01:00pm 19.2 12.3 2.6 33 7.7 WSW 28 44 15 24 1010.3 1010.3 0.0
09/12:30pm 19.1 14.0 2.9 34 7.5 SW 19 46 10 25 1010.4 1010.4 0.0
09/12:00pm 19.1 12.6 2.9 34 7.5 WSW 26 41 14 22 1010.2 1010.2 0.0
09/11:30am 20.3 14.5 4.4 35 7.7 WSW 24 39 13 21 1009.9 1009.9 0.0
09/11:05am 18.7 12.0 1.7 32 7.7 WSW 26 46 14 25 1009.4 1009.4 0.0
09/11:00am 19.7 13.6 2.6 32 7.9 SW 24 41 13 22 1009.4 1009.4 0.0
09/10:30am 18.7 12.1 2.1 33 7.6 SW 26 50 14 27 1009.1 1009.1 0.0
09/10:09am 18.4 11.6 3.1 36 7.1 WSW 28 46 15 25 1008.7 1008.7 0.0
09/10:00am 18.0 11.1 2.3 35 7.2 WSW 28 44 15 24 1008.7 1008.7 0.0
09/09:34am 17.6 10.3 2.4 36 6.9 WSW 30 48 16 26 1008.6 1008.6 0.0
09/09:30am 17.6 10.4 2.8 37 6.8 WSW 30 44 16 24 1008.4 1008.4 0.0
09/09:00am 17.2 10.0 3.1 39 6.5 W 30 48 16 26 1008.4 1008.4 0.2
09/08:49am 17.0 9.7 2.6 38 6.5 WSW 30 50 16 27 1008.3 1008.3 0.2
09/08:30am 16.8 10.7 2.8 39 6.4 WSW 24 52 13 28 1008.1 1008.1 0.2
09/08:22am 16.3 9.3 2.0 38 6.4 WSW 28 52 15 28 1008.1 1008.1 0.2
09/08:00am 16.3 10.3 3.4 42 5.9 WSW 24 50 13 27 1007.7 1007.7 0.2
09/07:41am 15.7 9.0 3.5 44 5.6 WSW 28 46 15 25 1007.4 1007.4 0.2
09/07:30am 15.9 11.0 4.3 46 5.4 WSW 19 39 10 21 1007.1 1007.1 0.2
09/07:00am 14.4 9.3 4.1 50 4.7 WSW 20 32 11 17 1006.5 1006.5 0.2
09/06:30am 15.0 9.6 4.4 49 4.9 WSW 22 39 12 21 1006.0 1006.0 0.2
09/06:00am 14.6 10.7 5.4 54 4.4 WSW 15 30 8 16 1005.3 1005.3 0.2
09/05:30am 14.0 10.5 5.4 56 4.0 SW 13 24 7 13 1004.5 1004.5 0.2
09/05:00am 14.8 10.5 5.1 52 4.6 SW 17 30 9 16 1004.1 1004.1 0.2
09/04:30am 15.0 10.2 5.5 53 4.5 SW 20 32 11 17 1003.5 1003.5 0.2
09/04:00am 15.4 10.8 6.7 56 4.3 SW 20 33 11 18 1003.0 1003.0 0.2
09/03:30am 15.4 11.2 8.2 62 3.6 SW 20 35 11 19 1002.6 1002.6 0.2
09/03:00am 15.6 11.8 9.1 65 3.4 SW 19 32 10 17 1002.1 1002.1 0.2
09/02:30am 15.6 11.8 9.7 68 3.1 SW 20 39 11 21 1001.4 1001.4 0.2
09/02:00am 15.5 12.5 10.5 72 2.7 SSW 17 28 9 15 1001.0 1001.0 0.2
09/01:30am 15.6 13.3 10.6 72 2.6 S 13 20 7 11 1000.6 1000.6 0.2
09/01:00am 16.5 13.5 10.6 68 3.2 SSW 17 26 9 14 1000.5 1000.5 0.2
09/12:30am 15.8 14.4 10.8 72 2.7 WSW 9 13 5 7 1000.0 1000.0 0.2
09/12:00am 16.6 15.1 10.5 67 3.3 W 9 13 5 7 999.9 999.9 0.2
 
Date/Time
EDT
Temp
°C
App
Temp
°C
Dew
Point
°C
Rel
Hum
%
Delta-T
°C
Wind Press
QNH
hPa
Press
MSL
hPa
Rain since
9am
mm
Dir  Spd
km/h
Gust
km/h
Spd
kts
Gust
kts
08/11:30pm 17.4 15.9 10.5 64 3.7 W 9 13 5 7 999.9 999.9 0.2
08/11:00pm 17.9 15.4 11.2 65 3.7 W 15 24 8 13 999.6 999.6 0.2
08/10:30pm 16.4 15.0 13.3 82 1.7 WSW 13 20 7 11 999.4 999.4 0.2
08/10:00pm 16.5 15.6 13.6 83 1.6 SW 11 20 6 11 999.5 999.5 0.2
08/09:30pm 16.6 14.7 14.1 85 1.4 SSW 17 22 9 12 999.2 999.2 0.2
08/09:00pm 17.1 14.4 13.6 80 2.0 SSW 20 30 11 16 998.3 998.3 0.0
08/08:30pm 17.6 15.0 13.9 79 2.1 S 20 32 11 17 998.4 998.4 0.0
08/08:00pm 19.1 17.9 15.0 77 2.4 S 15 24 8 13 997.8 997.8 0.0
08/07:30pm 20.7 20.6 15.9 74 2.9 S 11 15 6 8 997.4 997.4 0.0
08/07:00pm 21.6 21.7 18.4 82 2.0 S 15 26 8 14 996.5 996.5 0.0
08/06:30pm 22.5 24.7 19.1 81 2.2 SSW 6 24 3 13 995.8 995.8 0.0
08/06:00pm 22.6 24.7 19.0 80 2.3 NNE 6 9 3 5 995.1 995.1 0.0
08/05:30pm 22.3 22.7 19.1 82 2.0 NE 15 22 8 12 994.4 994.4 0.0
08/05:00pm 22.3 21.9 18.9 81 2.2 NNE 19 33 10 18 994.3 994.3 0.0
08/04:30pm 22.6 20.4 18.8 79 2.4 NNE 28 52 15 28 994.2 994.2 0.0
08/04:00pm 22.8 20.6 18.6 77 2.7 NNE 28 46 15 25 994.7 994.7 0.0
08/03:57pm 23.0 20.7 18.5 76 2.8 NNE 28 46 15 25 994.6 994.6 0.0
08/03:30pm 23.7 22.4 19.0 75 3.0 NNE 24 43 13 23 995.2 995.2 0.0
08/03:00pm 24.4 22.6 18.8 71 3.6 NNE 26 43 14 23 995.5 995.5 0.0
08/02:30pm 24.5 23.2 19.1 72 3.4 NE 24 41 13 22 996.5 996.5 0.0
08/02:00pm 24.3 24.3 18.9 72 3.5 NNE 17 24 9 13 997.6 997.6 0.0
08/01:30pm 23.7 22.4 18.1 71 3.5 NNE 22 33 12 18 997.8 997.8 0.0
08/01:00pm 23.6 23.1 17.8 70 3.6 NE 17 30 9 16 998.5 998.5 0.0
08/12:30pm 23.9 23.4 17.9 69 3.8 NNE 17 26 9 14 999.3 999.3 0.0
08/12:00pm 23.0 22.0 17.5 71 3.4 NNE 19 30 10 16 1000.0 1000.0 0.0
08/11:30am 23.0 22.1 16.8 68 3.8 NNE 17 30 9 16 1000.7 1000.7 0.0
08/11:00am 24.0 23.2 17.0 65 4.3 NNE 17 33 9 18 1001.3 1001.3 0.0
08/10:30am 24.4 24.3 16.1 60 5.1 N 11 22 6 12 1001.9 1001.9 0.0
08/10:00am 23.1 23.5 16.4 66 4.1 NE 9 13 5 7 1002.6 1002.6 0.0
08/09:30am 22.8 23.1 15.9 65 4.2 N 9 17 5 9 1003.4 1003.4 0.0
08/09:00am 22.2 22.3 15.5 66 4.0 N 9 19 5 10 1004.0 1004.0 0.0
08/08:30am 20.3 20.6 15.1 72 3.1 NW 7 11 4 6 1004.7 1004.7 0.0
08/08:00am 19.7 19.3 15.1 75 2.7 NW 11 15 6 8 1005.1 1005.1 0.0
08/07:30am 17.9 17.3 14.6 81 1.9 NW 11 15 6 8 1005.6 1005.6 0.0
08/07:00am 16.6 17.3 15.5 93 0.6 WNW 6 11 3 6 1006.1 1006.1 0.0
08/06:30am 15.3 15.4 14.5 95 0.5 NW 7 11 4 6 1006.1 1006.1 0.0
08/06:00am 14.3 14.6 13.3 94 0.6 SW 4 11 2 6 1006.6 1006.6 0.0
08/05:30am 14.9 15.1 14.1 95 0.5 NNW 6 13 3 7 1006.7 1006.7 0.0
08/05:21am 15.0 16.3 14.2 95 0.5 CALM 0 0 0 0 1006.6 1006.6 0.0
08/05:00am 13.5 14.2 12.2 92 0.7 CALM 0 0 0 0 1006.8 1006.8 0.0
08/04:42am 13.8 14.6 12.7 93 0.6 CALM 0 0 0 0 1007.3 1007.3 0.0
08/04:30am 13.8 14.6 12.5 92 0.7 CALM 0 0 0 0 1007.3 1007.3 0.0
08/04:24am 14.3 15.2 13.0 92 0.7 CALM 0 0 0 0 1007.5 1007.5 0.0
08/04:04am 14.0 14.8 12.7 92 0.7 CALM 0 6 0 3 1007.6 1007.6 0.0
08/04:02am 14.2 14.7 12.9 92 0.7 WSW 2 6 1 3 1007.7 1007.7 0.0
08/04:00am 14.3 14.9 13.0 92 0.7 WSW 2 6 1 3 1007.7 1007.7 0.0
08/03:44am 14.7 15.0 13.4 92 0.7 SW 4 9 2 5 1008.1 1008.1 0.0
08/03:30am 14.4 15.2 12.6 89 1.0 CALM 0 0 0 0 1008.3 1008.3 0.0
08/03:00am 15.3 16.3 13.3 88 1.1 CALM 0 0 0 0 1009.2 1009.2 0.0
08/02:30am 15.9 17.0 13.4 85 1.4 CALM 0 0 0 0 1009.7 1009.7 0.0
08/02:00am 17.4 17.7 14.9 85 1.4 N 7 9 4 5 1010.2 1010.2 0.0
08/01:30am 17.7 18.0 15.0 84 1.6 N 7 11 4 6 1010.8 1010.8 0.0
08/01:00am 17.9 17.7 14.8 82 1.8 N 9 15 5 8 1011.2 1011.2 0.0
08/12:30am 18.0 17.8 14.7 81 1.9 N 9 15 5 8 1011.6 1011.6 0.0
08/12:00am 18.2 18.0 14.7 80 2.0 N 9 15 5 8 1011.8 1011.8 0.0
 
Date/Time
EDT
Temp
°C
App
Temp
°C
Dew
Point
°C
Rel
Hum
%
Delta-T
°C
Wind Press
QNH
hPa
Press
MSL
hPa
Rain since
9am
mm
Dir  Spd
km/h
Gust
km/h
Spd
kts
Gust
kts
07/11:30pm 18.3 17.7 14.6 79 2.1 N 11 19 6 10 1012.0 1012.0 0.0
07/11:00pm 18.8 18.2 14.5 76 2.5 N 11 20 6 11 1012.5 1012.5 0.0
07/10:30pm 18.8 18.0 14.1 74 2.7 N 11 17 6 9 1012.8 1012.8 0.0
07/10:00pm 18.7 18.2 13.8 73 2.8 N 9 15 5 8 1012.9 1012.9 0.0
07/09:30pm 18.9 18.4 13.7 72 3.0 N 9 15 5 8 1013.4 1013.4 0.0
07/09:00pm 19.0 18.4 13.6 71 3.1 N 9 17 5 9 1013.5 1013.5 0.0
07/08:30pm 19.2 18.3 13.8 71 3.1 NNE 11 15 6 8 1013.5 1013.5 0.0
07/08:00pm 19.0 18.0 13.4 70 3.2 NNE 11 19 6 10 1013.6 1013.6 0.0
07/07:30pm 18.9 17.5 13.3 70 3.2 NE 13 20 7 11 1013.6 1013.6 0.0
07/07:00pm 18.9 17.8 13.1 69 3.3 ENE 11 17 6 9 1013.5 1013.5 0.0
07/06:30pm 18.8 17.9 12.5 67 3.5 ENE 9 17 5 9 1013.6 1013.6 0.0
07/06:00pm 19.2 18.3 12.5 65 3.7 E 9 17 5 9 1013.6 1013.6 0.0
07/05:30pm 20.0 18.9 13.0 64 4.0 E 11 15 6 8 1013.5 1013.5 0.0
07/05:00pm 19.4 18.0 12.2 63 4.0 ESE 11 19 6 10 1013.9 1013.9 0.0
07/04:30pm 20.6 19.2 13.3 63 4.2 SE 13 19 7 10 1014.1 1014.1 0.0
07/04:00pm 20.2 18.2 12.7 62 4.2 SE 15 22 8 12 1014.2 1014.2 0.0

Other Formats:

Comma delimited format used in spreadsheet applications
http://www.bom.gov.au/fwo/IDN60801/IDN60801.95929.axf

JavaScript Object Notation format (JSON) in row-major order
http://www.bom.gov.au/fwo/IDN60801/IDN60801.95929.json